Sea Amore — H9OC — position and weather

sailwx.info

Track history (hours):
 
Tides and Currents Weather Stations Pressure Air Temp Water Temp Dewpoint Dewpoint Depression Visibility Wind Speed Wind Dir Waves Ship Positions

Sea Amore

Last reported at 2014-Sep-15 05:33 UTC. Time now 2014-Sep-17 09:35 UTC.
Position N 46°21' E 031°01'.

Length 148 m; draft 5.1 m.

Type: Cargo ship. MMSI: 357019000.

Date/timePositionNaut miles runAvg speedWind from/ knotsBaromVisibWave heightAir tempDewpointWater temp
2014-Sep-15 05:33N 46°21' E 031°01'0 0.0
2014-Sep-15 04:21N 46°21' E 031°01'0 0.0
2014-Sep-15 03:30N 46°21' E 031°01'0 0.0
2014-Sep-15 02:18N 46°21' E 031°01'0 0.0
2014-Sep-15 01:33N 46°21' E 031°01'0 0.0
2014-Sep-14 05:21N 46°21' E 031°01'0 0.0
2014-Sep-14 04:30N 46°21' E 031°01'0 0.0
2014-Sep-14 02:33N 46°21' E 031°01'0 0.0
2014-Sep-13 05:20N 46°21' E 031°01'33411.6
2014-Sep-12 00:33N 40°59' E 028°60'5 4.5
2014-Sep-11 23:33N 40°56' E 028°55'2 1.6
2014-Sep-11 22:33N 40°57' E 028°54'0 0.1
2014-Sep-11 21:33N 40°57' E 028°54'0 0.0
2014-Sep-11 20:33N 40°57' E 028°54'0 0.0
2014-Sep-11 19:33N 40°57' E 028°54'0 0.0
2014-Sep-11 18:33N 40°57' E 028°54'0 0.0
2014-Sep-11 17:33N 40°57' E 028°54'0 0.0
2014-Sep-11 16:33N 40°57' E 028°54'0 0.0
2014-Sep-11 15:33N 40°57' E 028°54'0 0.0
2014-Sep-11 13:23N 40°57' E 028°54'0 0.0
2014-Sep-11 12:33N 40°57' E 028°54'0 0.1
2014-Sep-11 11:33N 40°57' E 028°54'0 0.1
2014-Sep-11 10:33N 40°57' E 028°54'0 0.0
2014-Sep-11 09:32N 40°57' E 028°54'0 0.0
2014-Sep-11 08:32N 40°57' E 028°54'6 6.1
2014-Sep-11 07:33N 40°52' E 028°50'9612.9
2014-Sep-11 00:07N 40°27' E 026°48'712.5
2014-Sep-10 23:33N 40°22' E 026°40'43 9.9
2014-Sep-10 19:15N 39°55' E 025°57'4511.9
2014-Sep-10 15:30N 39°12' E 025°44'1212.6
2014-Sep-10 14:33N 39°01' E 025°51'5612.5
2014-Sep-10 10:05N 38°08' E 026°15'2012.8
2014-Sep-10 08:30N 37°50' E 026°27'1712.7
2014-Sep-10 07:09N 37°35' E 026°38'912.9
2014-Sep-10 06:29N 37°29' E 026°44'  
Track history (hours):
 
Tides and Currents Weather Stations Pressure Air Temp Water Temp Dewpoint Dewpoint Depression Visibility Wind Speed Wind Dir Waves Ship Positions

Sea Amore

Last reported at 2014-Sep-15 05:33 UTC. Time now 2014-Sep-17 09:35 UTC.
Position N 46°21' E 031°01'.

Length 148 m; draft 5.1 m.

Type: Cargo ship. MMSI: 357019000.

Date/timePositionNaut miles runAvg speedWind from/ knotsBaromVisibWave heightAir tempDewpointWater temp
2014-Sep-15 05:33N 46°21' E 031°01'0 0.0
2014-Sep-15 04:21N 46°21' E 031°01'0 0.0
2014-Sep-15 03:30N 46°21' E 031°01'0 0.0
2014-Sep-15 02:18N 46°21' E 031°01'0 0.0
2014-Sep-15 01:33N 46°21' E 031°01'0 0.0
2014-Sep-14 05:21N 46°21' E 031°01'0 0.0
2014-Sep-14 04:30N 46°21' E 031°01'0 0.0
2014-Sep-14 02:33N 46°21' E 031°01'0 0.0
2014-Sep-13 05:20N 46°21' E 031°01'33411.6
2014-Sep-12 00:33N 40°59' E 028°60'5 4.5
2014-Sep-11 23:33N 40°56' E 028°55'2 1.6
2014-Sep-11 22:33N 40°57' E 028°54'0 0.1
2014-Sep-11 21:33N 40°57' E 028°54'0 0.0
2014-Sep-11 20:33N 40°57' E 028°54'0 0.0
2014-Sep-11 19:33N 40°57' E 028°54'0 0.0
2014-Sep-11 18:33N 40°57' E 028°54'0 0.0
2014-Sep-11 17:33N 40°57' E 028°54'0 0.0
2014-Sep-11 16:33N 40°57' E 028°54'0 0.0
2014-Sep-11 15:33N 40°57' E 028°54'0 0.0
2014-Sep-11 13:23N 40°57' E 028°54'0 0.0
2014-Sep-11 12:33N 40°57' E 028°54'0 0.1
2014-Sep-11 11:33N 40°57' E 028°54'0 0.1
2014-Sep-11 10:33N 40°57' E 028°54'0 0.0
2014-Sep-11 09:32N 40°57' E 028°54'0 0.0
2014-Sep-11 08:32N 40°57' E 028°54'6 6.1
2014-Sep-11 07:33N 40°52' E 028°50'9612.9
2014-Sep-11 00:07N 40°27' E 026°48'712.5
2014-Sep-10 23:33N 40°22' E 026°40'43 9.9
2014-Sep-10 19:15N 39°55' E 025°57'4511.9
2014-Sep-10 15:30N 39°12' E 025°44'1212.6
2014-Sep-10 14:33N 39°01' E 025°51'5612.5
2014-Sep-10 10:05N 38°08' E 026°15'2012.8
2014-Sep-10 08:30N 37°50' E 026°27'1712.7
2014-Sep-10 07:09N 37°35' E 026°38'912.9
2014-Sep-10 06:29N 37°29' E 026°44'  

Dump ship's entire track history